Time;durP1;ratioP1;P1;durP2;ratioP2;P2;SDS_P1;SDS_P2;PMS_P1;PMS_P2;Temp;Humidity;BMP_temperature;BMP_pressure;BME280_temperature;BME280_humidity;BME280_pressure;Samples;Min_cycle;Max_cycle;Signal;HPM_P1;HPM_P2
2022/03/27 00:00:17;;;;;;;7.10;3.65;;;;;;;;;;5036478;28;20096;-80
2022/03/27 00:02:44;;;;;;;6.00;3.58;;;;;;;;;;5036544;28;20091;-80
2022/03/27 00:05:10;;;;;;;7.78;3.60;;;;;;;;;;5035142;28;20045;-79
2022/03/27 00:07:37;;;;;;;6.97;3.50;;;;;;;;;;5036301;28;20045;-79
2022/03/27 00:10:03;;;;;;;8.63;3.87;;;;;;;;;;5034983;28;20456;-80
2022/03/27 00:12:29;;;;;;;10.02;4.18;;;;;;;;;;5036025;28;20291;-80
2022/03/27 00:14:55;;;;;;;9.45;3.60;;;;;;;;;;5035771;28;20045;-80
2022/03/27 00:17:21;;;;;;;7.78;4.10;;;;;;;;;;5035220;28;20048;-80
2022/03/27 00:19:48;;;;;;;11.27;4.22;;;;;;;;;;5035165;28;20131;-76
2022/03/27 00:22:15;;;;;;;7.85;4.18;;;;;;;;;;5036093;28;20149;-79
2022/03/27 00:24:41;;;;;;;9.05;4.10;;;;;;;;;;5035986;28;20053;-80
2022/03/27 00:27:08;;;;;;;9.80;4.22;;;;;;;;;;5035745;28;20444;-80
2022/03/27 00:29:34;;;;;;;10.93;4.68;;;;;;;;;;5035020;28;20076;-80
2022/03/27 00:32:00;;;;;;;9.57;4.55;;;;;;;;;;5035615;28;20104;-80
2022/03/27 00:34:27;;;;;;;9.18;5.03;;;;;;;;;;5035771;28;20057;-80
2022/03/27 00:36:53;;;;;;;15.50;5.20;;;;;;;;;;5034220;28;20041;-80
2022/03/27 00:39:19;;;;;;;8.70;5.30;;;;;;;;;;5035718;28;20069;-80
2022/03/27 00:41:45;;;;;;;14.63;5.45;;;;;;;;;;5034609;28;20110;-80
2022/03/27 00:44:12;;;;;;;10.70;4.63;;;;;;;;;;5034246;28;20053;-80
2022/03/27 00:46:38;;;;;;;10.70;6.10;;;;;;;;;;5034336;28;20140;-80
2022/03/27 00:49:04;;;;;;;12.20;5.75;;;;;;;;;;5035184;28;20052;-80
2022/03/27 00:51:30;;;;;;;9.18;5.20;;;;;;;;;;5035148;28;20490;-80
2022/03/27 00:53:56;;;;;;;8.50;5.18;;;;;;;;;;5034215;28;20055;-79
2022/03/27 00:56:22;;;;;;;7.88;5.45;;;;;;;;;;5035641;28;20049;-79
2022/03/27 00:58:48;;;;;;;13.23;5.88;;;;;;;;;;5035366;28;20136;-79
2022/03/27 01:01:18;;;;;;;11.73;5.30;;;7.70;99.90;;;;;;5035022;28;20155;-80
2022/03/27 01:03:47;;;;;;;13.35;6.30;;;7.70;99.90;;;;;;5034492;28;20045;-80
2022/03/27 01:06:32;;;;;;;12.82;6.40;;;7.70;99.90;;;;;;5034938;28;20057;-79
2022/03/27 01:11:44;;;;;;;14.38;6.88;;;7.50;99.90;;;;;;5033763;28;20509;-80
2022/03/27 01:14:09;;;;;;;14.95;6.38;;;7.50;99.90;;;;;;5033679;28;20136;-80
2022/03/27 01:16:44;;;;;;;15.83;7.67;;;7.50;99.90;;;;;;5035032;28;20145;-80
2022/03/27 01:19:15;;;;;;;14.50;8.27;;;7.50;99.90;;;;;;5034811;28;20107;-80
2022/03/27 01:21:44;;;;;;;13.45;7.93;;;7.50;99.90;;;;;;5033995;28;20045;-80
2022/03/27 01:24:10;;;;;;;13.75;7.75;;;7.50;99.90;;;;;;5034635;28;20053;-80
2022/03/27 01:26:38;;;;;;;17.33;8.45;;;7.50;99.90;;;;;;5034858;28;20045;-80
2022/03/27 01:29:05;;;;;;;14.63;7.95;;;7.50;99.90;;;;;;5034512;28;20179;-80
2022/03/27 01:31:32;;;;;;;13.57;7.82;;;7.50;99.90;;;;;;5034849;28;20053;-80
2022/03/27 01:33:57;;;;;;;11.93;6.97;;;7.50;99.90;;;;;;5033358;28;20357;-76
2022/03/27 01:36:26;;;;;;;12.27;6.87;;;7.50;99.90;;;;;;5033463;28;20038;-80
2022/03/27 01:38:53;;;;;;;12.43;6.53;;;7.50;99.90;;;;;;5033645;28;20049;-80
2022/03/27 01:41:19;;;;;;;11.88;6.35;;;7.50;99.90;;;;;;5034295;28;20060;-81
2022/03/27 01:43:45;;;;;;;12.57;6.97;;;7.50;99.90;;;;;;5034871;28;20041;-80
2022/03/27 01:46:11;;;;;;;12.73;6.63;;;7.60;99.90;;;;;;5036696;28;20045;-80
2022/03/27 01:48:37;;;;;;;13.53;7.07;;;7.60;99.90;;;;;;5034528;28;20276;-80
2022/03/27 01:51:03;;;;;;;11.93;6.67;;;7.60;99.90;;;;;;5033086;28;20049;-80
2022/03/27 01:53:29;;;;;;;11.03;5.63;;;7.60;99.90;;;;;;5034437;28;20052;-80
2022/03/27 01:55:55;;;;;;;16.37;5.97;;;7.50;99.90;;;;;;5034039;28;20045;-80
2022/03/27 01:58:22;;;;;;;15.00;6.53;;;7.50;99.90;;;;;;5032942;28;20768;-80
2022/03/27 02:00:48;;;;;;;11.55;6.05;;;7.50;99.90;;;;;;5034219;28;20088;-80
2022/03/27 02:03:14;;;;;;;12.67;6.07;;;7.50;99.90;;;;;;5032974;28;20085;-80
2022/03/27 02:05:39;;;;;;;14.33;6.50;;;7.60;99.90;;;;;;5034186;28;20286;-80
2022/03/27 02:08:05;;;;;;;10.63;6.27;;;7.60;99.90;;;;;;5033749;28;20041;-80
2022/03/27 02:10:31;;;;;;;13.00;6.23;;;7.60;99.90;;;;;;5034150;28;20049;-80
2022/03/27 02:12:57;;;;;;;16.27;6.53;;;7.50;99.90;;;;;;5032971;28;20068;-80
2022/03/27 02:15:24;;;;;;;12.83;6.07;;;7.50;99.90;;;;;;5033601;28;20390;-80
2022/03/27 02:17:50;;;;;;;11.65;5.75;;;7.50;99.90;;;;;;5016480;28;20058;-80
2022/03/27 02:20:16;;;;;;;9.57;5.93;;;7.50;99.90;;;;;;5032442;28;20044;-80
2022/03/27 02:22:42;;;;;;;14.47;6.70;;;7.60;99.90;;;;;;5032927;28;20378;-80
2022/03/27 02:25:09;;;;;;;9.90;5.27;;;7.60;99.90;;;;;;5033571;28;20481;-80
2022/03/27 02:27:35;;;;;;;15.48;6.05;;;7.60;99.90;;;;;;5033684;28;20049;-80
2022/03/27 02:30:01;;;;;;;13.67;5.53;;;7.60;99.90;;;;;;5033856;28;20068;-80
2022/03/27 02:32:26;;;;;;;11.18;4.85;;;7.50;99.90;;;;;;5032125;28;20053;-80
2022/03/27 02:34:52;;;;;;;12.97;5.17;;;7.50;99.90;;;;;;5033593;28;20048;-81
2022/03/27 02:37:18;;;;;;;13.30;5.97;;;7.40;99.90;;;;;;5032153;28;20057;-81
2022/03/27 02:39:44;;;;;;;12.33;6.10;;;7.30;99.90;;;;;;5032424;28;20053;-81
2022/03/27 02:42:10;;;;;;;14.50;5.80;;;7.40;99.90;;;;;;5033240;28;20543;-80
2022/03/27 02:44:35;;;;;;;11.82;5.28;;;7.40;99.90;;;;;;5033129;28;20048;-80
2022/03/27 02:47:01;;;;;;;15.17;5.37;;;7.50;99.90;;;;;;5033526;28;20045;-80
2022/03/27 02:49:27;;;;;;;11.20;5.13;;;7.60;99.90;;;;;;5031603;28;20045;-80
2022/03/27 02:51:53;;;;;;;13.07;5.77;;;7.60;99.90;;;;;;5032156;28;20057;-80
2022/03/27 02:54:18;;;;;;;11.40;4.83;;;7.60;99.90;;;;;;5031727;28;20057;-80
2022/03/27 02:56:46;;;;;;;12.67;4.57;;;7.60;99.90;;;;;;5033205;28;20049;-80
2022/03/27 02:59:11;;;;;;;11.68;5.05;;;7.60;99.90;;;;;;5015450;28;20057;-80
2022/03/27 03:01:37;;;;;;;12.10;5.30;;;7.50;99.90;;;;;;5033206;28;20050;-80
2022/03/27 03:04:04;;;;;;;11.77;5.07;;;7.50;99.90;;;;;;5031999;28;20049;-80
2022/03/27 03:06:32;;;;;;;12.57;5.68;;;7.50;99.90;;;;;;5032247;28;20401;-80
2022/03/27 03:08:57;;;;;;;11.32;4.75;;;7.50;99.90;;;;;;5031975;28;20064;-80
2022/03/27 03:11:23;;;;;;;11.93;5.23;;;7.50;99.90;;;;;;5031734;28;20041;-80
2022/03/27 03:13:52;;;;;;;15.77;5.03;;;7.50;99.90;;;;;;5033193;28;20057;-80
2022/03/27 03:16:20;;;;;;;10.05;4.75;;;7.50;99.90;;;;;;5032544;28;20056;-79
2022/03/27 03:18:46;;;;;;;12.27;4.60;;;7.50;99.90;;;;;;5033094;28;20150;-80
2022/03/27 03:21:12;;;;;;;9.67;4.63;;;7.50;99.90;;;;;;5032615;28;20084;-79
2022/03/27 03:23:38;;;;;;;12.93;5.27;;;7.50;99.90;;;;;;5032849;28;20493;-80
2022/03/27 03:26:06;;;;;;;11.23;5.00;;;7.50;99.90;;;;;;5032819;28;20060;-80
2022/03/27 03:28:32;;;;;;;10.52;4.63;;;7.50;99.90;;;;;;5031535;28;20104;-80
2022/03/27 03:30:58;;;;;;;11.73;5.20;;;7.40;99.90;;;;;;5031790;28;20049;-81
2022/03/27 03:33:26;;;;;;;12.85;4.75;;;7.40;99.90;;;;;;5032453;28;20494;-80
2022/03/27 03:35:52;;;;;;;13.57;4.80;;;7.30;99.90;;;;;;5032889;28;20391;-80
2022/03/27 03:38:18;;;;;;;11.80;4.90;;;7.30;99.90;;;;;;5031197;28;20049;-80
2022/03/27 03:40:44;;;;;;;10.90;4.88;;;7.30;99.90;;;;;;5015675;28;20045;-80
2022/03/27 03:43:11;;;;;;;11.37;5.20;;;7.30;99.90;;;;;;5032802;28;20046;-80
2022/03/27 03:45:37;;;;;;;12.15;5.65;;;7.20;99.90;;;;;;5034254;28;20334;-80
2022/03/27 03:48:04;;;;;;;13.50;5.88;;;7.20;99.90;;;;;;5032009;28;20045;-80
2022/03/27 03:50:33;;;;;;;11.77;5.65;;;7.20;99.90;;;;;;5032582;28;20060;-80
2022/03/27 03:52:59;;;;;;;11.48;5.45;;;7.10;99.90;;;;;;5031495;28;20052;-80
2022/03/27 03:55:26;;;;;;;12.77;5.75;;;7.10;99.90;;;;;;5032349;28;20037;-80
2022/03/27 03:57:52;;;;;;;14.30;5.75;;;7.10;99.90;;;;;;5015235;28;20128;-80
2022/03/27 04:00:17;;;;;;;12.33;6.00;;;7.10;99.90;;;;;;5032068;28;20183;-80
2022/03/27 04:02:44;;;;;;;12.03;6.37;;;7.10;99.90;;;;;;5031308;28;20516;-80
2022/03/27 04:05:09;;;;;;;11.50;5.95;;;7.00;99.90;;;;;;5032523;28;20046;-80
2022/03/27 04:07:35;;;;;;;10.83;5.27;;;7.00;99.90;;;;;;5032135;28;20152;-80
2022/03/27 04:10:03;;;;;;;13.63;5.43;;;7.00;99.90;;;;;;5031516;28;20067;-80
2022/03/27 04:12:29;;;;;;;15.32;6.28;;;7.00;99.90;;;;;;5031456;28;20061;-80
2022/03/27 04:14:55;;;;;;;13.63;6.60;;;7.00;99.90;;;;;;5032447;28;20053;-80
2022/03/27 04:17:21;;;;;;;13.07;6.28;;;7.00;99.90;;;;;;5032517;28;20056;-79
2022/03/27 04:19:47;;;;;;;13.63;5.93;;;7.00;99.90;;;;;;5036449;28;20199;-80
2022/03/27 04:22:12;;;;;;;16.10;6.67;;;7.00;99.90;;;;;;5018626;28;20409;-80
2022/03/27 04:24:38;;;;;;;19.73;7.03;;;6.90;99.90;;;;;;5035755;28;20045;-79
2022/03/27 04:27:04;;;;;;;14.90;7.17;;;6.90;99.90;;;;;;5035928;28;20474;-80
2022/03/27 04:29:30;;;;;;;15.00;6.37;;;6.90;99.90;;;;;;5034497;28;20053;-80
2022/03/27 04:31:55;;;;;;;14.27;7.37;;;6.90;99.90;;;;;;5035873;28;20045;-80
2022/03/27 04:34:21;;;;;;;15.20;7.30;;;6.90;99.90;;;;;;5035546;28;20051;-79
2022/03/27 04:36:47;;;;;;;17.10;7.13;;;6.90;99.90;;;;;;5035797;28;20041;-80
2022/03/27 04:39:13;;;;;;;17.63;7.72;;;6.80;99.90;;;;;;5035707;28;20041;-80
2022/03/27 04:41:39;;;;;;;14.47;7.77;;;6.90;99.90;;;;;;5035165;28;20137;-80
2022/03/27 04:44:05;;;;;;;22.83;9.37;;;6.80;99.90;;;;;;5034631;28;20046;-80
2022/03/27 04:46:32;;;;;;;16.25;8.38;;;6.90;99.90;;;;;;5034277;28;20057;-80
2022/03/27 04:48:57;;;;;;;15.60;8.13;;;6.90;99.90;;;;;;5035786;28;20053;-80
2022/03/27 04:51:23;;;;;;;15.80;7.60;;;6.90;99.90;;;;;;5017688;28;20122;-80
2022/03/27 04:53:49;;;;;;;15.20;7.93;;;6.90;99.90;;;;;;5035548;28;20045;-80
2022/03/27 04:56:16;;;;;;;14.60;7.80;;;6.90;99.90;;;;;;5034360;28;20052;-81
2022/03/27 04:58:41;;;;;;;11.90;6.78;;;6.80;99.90;;;;;;5035031;28;20454;-80
2022/03/27 05:01:07;;;;;;;16.60;8.03;;;6.90;99.90;;;;;;5035504;28;20132;-80
2022/03/27 05:03:33;;;;;;;16.90;8.47;;;6.90;99.90;;;;;;5034576;28;20054;-80
2022/03/27 05:05:59;;;;;;;15.83;7.90;;;6.90;99.90;;;;;;5035247;28;20125;-80
2022/03/27 05:08:26;;;;;;;14.45;7.88;;;6.90;99.90;;;;;;5017468;28;20058;-80
2022/03/27 05:10:51;;;;;;;13.45;7.75;;;6.80;99.90;;;;;;5035372;28;20448;-81
2022/03/27 05:13:18;;;;;;;20.07;8.00;;;6.80;99.90;;;;;;5035226;28;20132;-81
2022/03/27 05:15:45;;;;;;;14.50;7.47;;;6.80;99.90;;;;;;5034719;28;20084;-81
2022/03/27 05:18:10;;;;;;;17.15;8.55;;;6.80;99.90;;;;;;5034950;28;20058;-81
2022/03/27 05:20:40;;;;;;;19.00;8.87;;;6.70;99.90;;;;;;5034649;28;20123;-81
2022/03/27 05:23:06;;;;;;;19.27;10.13;;;6.70;99.90;;;;;;5033829;28;20135;-81
2022/03/27 05:25:40;;;;;;;23.27;9.57;;;6.70;99.90;;;;;;5017009;28;20129;-80
2022/03/27 05:28:07;;;;;;;21.88;10.15;;;;;;;;;;5033875;28;20073;-80
2022/03/27 05:30:33;;;;;;;16.90;8.90;;;;;;;;;;5033797;28;20097;-81
2022/03/27 05:32:58;;;;;;;17.75;8.88;;;6.60;99.90;;;;;;5034668;28;20126;-82
2022/03/27 05:35:24;;;;;;;16.23;7.63;;;6.50;99.90;;;;;;5034735;28;20485;-82
2022/03/27 05:37:51;;;;;;;19.57;7.70;;;6.50;99.90;;;;;;5034404;28;20053;-81
2022/03/27 05:40:19;;;;;;;14.48;6.32;;;6.60;99.90;;;;;;5033525;28;20053;-82
2022/03/27 05:42:47;;;;;;;12.80;5.88;;;6.60;99.90;;;;;;5034822;28;20048;-82
2022/03/27 05:45:13;;;;;;;14.70;6.20;;;6.70;99.90;;;;;;5035299;28;20056;-82
2022/03/27 05:47:43;;;;;;;10.55;5.18;;;6.60;99.90;;;;;;5036406;28;20088;-82
2022/03/27 05:50:14;;;;;;;11.63;5.47;;;6.60;99.90;;;;;;5034733;28;20042;-80
2022/03/27 05:52:42;;;;;;;12.68;4.97;;;6.70;99.90;;;;;;5034380;28;20045;-80
2022/03/27 05:55:08;;;;;;;11.95;4.30;;;6.70;99.90;;;;;;5034525;28;20076;-80
2022/03/27 05:57:34;;;;;;;13.05;4.95;;;6.70;99.90;;;;;;5034041;28;20045;-80
2022/03/27 06:00:00;;;;;;;12.80;4.60;;;6.70;99.90;;;;;;5034423;28;20053;-80
2022/03/27 06:02:26;;;;;;;9.73;4.37;;;6.70;99.90;;;;;;5032989;28;20053;-82
2022/03/27 06:04:51;;;;;;;10.60;5.87;;;6.70;99.90;;;;;;5032953;28;20346;-81
2022/03/27 06:07:17;;;;;;;10.37;4.10;;;6.80;99.90;;;;;;5034155;28;20513;-81
2022/03/27 06:09:43;;;;;;;13.70;4.03;;;6.80;99.90;;;;;;5032863;28;20042;-80
2022/03/27 06:12:10;;;;;;;12.43;4.50;;;6.90;99.90;;;;;;5033893;28;20497;-81
2022/03/27 06:14:36;;;;;;;12.48;3.80;;;7.00;99.90;;;;;;5033885;28;20053;-81
2022/03/27 06:17:02;;;;;;;12.13;4.40;;;7.00;99.90;;;;;;5032666;28;20397;-81
2022/03/27 06:19:30;;;;;;;9.38;3.88;;;7.10;99.90;;;;;;5032743;28;20053;-81
2022/03/27 06:21:57;;;;;;;11.68;3.47;;;7.10;99.90;;;;;;5033641;28;20045;-81
2022/03/27 06:24:24;;;;;;;13.43;4.18;;;7.10;99.90;;;;;;5034019;28;20088;-81
2022/03/27 06:26:50;;;;;;;13.13;4.63;;;7.30;99.90;;;;;;5033441;28;20041;-82
2022/03/27 06:29:16;;;;;;;18.50;4.87;;;7.60;99.90;;;;;;5033734;28;20375;-81
2022/03/27 06:31:42;;;;;;;18.95;5.03;;;7.70;99.90;;;;;;5033339;28;20054;-81
2022/03/27 06:34:08;;;;;;;22.30;5.67;;;7.70;99.90;;;;;;5033644;28;20128;-81
2022/03/27 06:36:37;;;;;;;25.05;5.03;;;7.60;99.90;;;;;;5033524;28;20465;-78
2022/03/27 06:39:04;;;;;;;22.25;4.70;;;7.50;99.90;;;;;;5033761;28;20064;-81
2022/03/27 06:41:30;;;;;;;24.63;6.03;;;7.50;99.90;;;;;;5032503;28;20466;-81
2022/03/27 06:43:56;;;;;;;22.13;5.63;;;7.50;99.90;;;;;;5031937;28;20076;-80
2022/03/27 06:46:21;;;;;;;26.33;6.40;;;7.50;99.90;;;;;;5033572;28;20088;-81
2022/03/27 06:48:49;;;;;;;24.97;5.73;;;7.50;99.90;;;;;;5032088;28;20087;-80
2022/03/27 06:51:16;;;;;;;29.90;6.22;;;7.50;99.90;;;;;;5033366;28;20065;-82
2022/03/27 06:53:43;;;;;;;31.85;6.28;;;7.70;99.90;;;;;;5031980;28;20049;-82
2022/03/27 06:56:09;;;;;;;29.10;6.95;;;8.40;99.90;;;;;;5031955;28;20083;-82
2022/03/27 06:58:34;;;;;;;27.93;6.60;;;9.40;99.90;;;;;;5032289;28;20049;-82
2022/03/27 07:03:44;;;;;;;27.20;5.60;;;11.30;99.90;;;;;;5031905;28;20049;-81
2022/03/27 07:06:11;;;;;;;35.03;7.47;;;12.00;99.90;;;;;;5015363;28;20791;-81
2022/03/27 07:08:37;;;;;;;26.03;6.17;;;;;;;;;;5030860;28;20042;-80
2022/03/27 07:11:03;;;;;;;31.37;7.07;;;13.40;99.90;;;;;;5031921;28;20284;-82
2022/03/27 07:13:30;;;;;;;34.40;7.57;;;13.90;99.90;;;;;;5029951;28;20296;-83
2022/03/27 07:15:56;;;;;;;27.80;6.80;;;14.50;99.90;;;;;;5031411;28;20308;-82
2022/03/27 07:18:22;;;;;;;22.77;6.37;;;15.00;99.90;;;;;;5032940;28;20663;-82
2022/03/27 07:20:48;;;;;;;23.30;6.63;;;15.50;96.80;;;;;;5014980;28;20155;-82
2022/03/27 07:23:17;;;;;;;27.53;7.33;;;16.30;93.70;;;;;;5036488;28;20060;-82
2022/03/27 07:25:45;;;;;;;26.77;6.30;;;16.90;91.50;;;;;;5032526;28;20330;-82
2022/03/27 07:28:12;;;;;;;28.17;7.30;;;17.00;85.40;;;;;;5032769;28;20284;-82
2022/03/27 07:30:41;;;;;;;24.70;7.20;;;17.10;81.90;;;;;;5032919;28;20375;-82
2022/03/27 07:33:07;;;;;;;27.97;6.53;;;17.30;78.60;;;;;;5031721;28;20346;-82
2022/03/27 07:35:34;;;;;;;24.70;6.17;;;17.50;74.50;;;;;;5032418;28;20045;-81
2022/03/27 07:38:00;;;;;;;23.97;6.47;;;17.40;71.50;;;;;;5032546;28;20498;-81
2022/03/27 07:40:27;;;;;;;26.87;6.13;;;17.00;69.70;;;;;;5032707;28;20060;-82
2022/03/27 07:42:54;;;;;;;27.27;7.57;;;17.10;70.90;;;;;;5032422;28;20056;-81
2022/03/27 07:45:24;;;;;;;23.10;6.50;;;17.50;70.50;;;;;;5031766;28;20041;-82
2022/03/27 07:47:52;;;;;;;29.23;7.37;;;17.10;65.80;;;;;;5033195;28;20052;-82
2022/03/27 07:50:20;;;;;;;28.97;6.90;;;16.10;67.80;;;;;;5033688;28;20076;-82
2022/03/27 07:52:46;;;;;;;24.37;6.20;;;15.30;69.40;;;;;;5033594;28;20041;-82
2022/03/27 07:55:14;;;;;;;29.83;7.63;;;14.70;71.10;;;;;;5036545;28;20485;-82
2022/03/27 07:57:40;;;;;;;26.30;6.17;;;13.90;72.80;;;;;;5036401;28;20060;-82
2022/03/27 08:00:08;;;;;;;25.47;6.90;;;13.40;75.50;;;;;;5036397;28;20276;-82
2022/03/27 08:02:34;;;;;;;29.33;6.90;;;12.90;80.70;;;;;;5035753;28;20042;-82
2022/03/27 08:05:00;;;;;;;32.57;6.93;;;12.60;84.10;;;;;;5035243;28;20298;-80
2022/03/27 08:07:25;;;;;;;28.17;6.60;;;12.50;84.60;;;;;;5035634;28;20050;-82
2022/03/27 08:09:52;;;;;;;25.03;6.93;;;12.30;83.80;;;;;;5034876;28;20111;-81
2022/03/27 08:12:20;;;;;;;29.57;7.00;;;12.00;86.40;;;;;;5036217;28;20057;-81
2022/03/27 08:14:48;;;;;;;32.30;7.53;;;11.80;90.50;;;;;;5034763;28;20387;-78
2022/03/27 08:17:16;;;;;;;32.90;7.40;;;11.80;91.10;;;;;;5036149;28;20303;-82
2022/03/27 08:19:43;;;;;;;30.03;8.07;;;11.90;91.50;;;;;;5036184;28;20280;-82
2022/03/27 08:22:10;;;;;;;36.30;8.17;;;11.90;91.40;;;;;;5034708;28;20276;-81
2022/03/27 08:24:37;;;;;;;31.43;7.43;;;11.70;91.90;;;;;;5036170;28;20357;-80
2022/03/27 08:27:04;;;;;;;27.97;6.83;;;11.70;92.40;;;;;;5035511;28;20344;-81
2022/03/27 08:29:29;;;;;;;32.13;7.97;;;11.60;93.00;;;;;;5036054;28;20276;-81
2022/03/27 08:31:58;;;;;;;28.17;6.20;;;11.60;94.00;;;;;;5035789;28;20288;-81
2022/03/27 08:34:24;;;;;;;25.63;6.47;;;11.70;93.10;;;;;;5036230;28;20440;-81
2022/03/27 08:36:50;;;;;;;24.67;6.30;;;11.50;94.00;;;;;;5017888;28;20334;-79
2022/03/27 08:39:17;;;;;;;30.37;6.53;;;11.40;94.80;;;;;;5035880;28;20053;-82
2022/03/27 08:41:48;;;;;;;32.10;6.87;;;11.40;95.70;;;;;;5035778;28;20779;-82
2022/03/27 08:44:16;;;;;;;31.43;6.83;;;11.40;96.70;;;;;;5034425;28;20613;-82
2022/03/27 08:46:43;;;;;;;28.10;5.90;;;11.30;98.10;;;;;;5035729;28;20342;-82
2022/03/27 08:49:18;;;;;;;32.33;7.97;;;11.30;98.00;;;;;;5037767;28;20834;-83
2022/03/27 08:51:55;;;;;;;29.30;7.57;;;11.30;99.20;;;;;;5035855;28;20363;-82
2022/03/27 08:54:26;;;;;;;37.27;7.93;;;11.40;99.20;;;;;;5035538;28;20705;-83
2022/03/27 08:57:13;;;;;;;35.17;7.80;;;11.40;98.20;;;;;;5035430;28;20289;-78
2022/03/27 08:59:42;;;;;;;35.33;7.23;;;11.30;98.90;;;;;;5034287;28;20276;-84
2022/03/27 09:02:08;;;;;;;32.03;7.20;;;11.30;99.60;;;;;;5035187;28;20276;-84
2022/03/27 09:04:36;;;;;;;31.13;6.53;;;11.30;99.10;;;;;;5034596;28;20306;-83
2022/03/27 09:07:03;;;;;;;27.53;6.80;;;11.30;98.60;;;;;;5035080;28;20060;-82
2022/03/27 09:09:33;;;;;;;33.00;6.63;;;11.20;98.70;;;;;;5035399;28;20284;-83
2022/03/27 09:12:02;;;;;;;32.27;6.80;;;11.30;98.10;;;;;;5035045;28;20283;-83
2022/03/27 09:14:33;;;;;;;33.57;6.87;;;11.40;99.10;;;;;;5034763;28;20335;-83
2022/03/27 09:17:03;;;;;;;34.60;8.70;;;11.40;99.90;;;;;;5035032;28;20296;-81
2022/03/27 09:19:34;;;;;;;35.33;7.63;;;11.40;99.90;;;;;;5017880;28;20327;-82
2022/03/27 09:22:11;;;;;;;29.63;7.13;;;11.40;99.90;;;;;;5034901;28;20276;-83
2022/03/27 09:24:38;;;;;;;28.17;6.67;;;11.50;99.90;;;;;;5035256;28;20272;-82
2022/03/27 09:27:05;;;;;;;31.47;7.07;;;11.50;99.60;;;;;;5034723;28;20276;-81
2022/03/27 09:30:00;;;;;;;26.57;5.73;;;11.60;99.00;;;;;;5033790;28;20281;-80
2022/03/27 09:32:31;;;;;;;30.83;8.43;;;11.70;98.60;;;;;;5034982;28;20665;-79
2022/03/27 09:34:58;;;;;;;31.90;7.50;;;11.70;98.70;;;;;;5033895;28;20294;-72
2022/03/27 09:37:32;;;;;;;30.90;7.57;;;11.60;99.00;;;;;;5033887;28;20338;-83
2022/03/27 09:39:58;;;;;;;25.47;6.17;;;11.70;98.00;;;;;;5034656;28;20700;-75
2022/03/27 09:42:24;;;;;;;25.17;6.63;;;11.80;94.90;;;;;;5033434;28;20284;-82
2022/03/27 09:45:18;;;;;;;26.37;5.90;;;11.80;94.90;;;;;;5034635;28;20280;-82
2022/03/27 09:47:48;;;;;;;25.90;5.77;;;11.80;93.30;;;;;;5036566;28;20724;-82
2022/03/27 09:50:34;;;;;;;29.47;6.50;;;11.90;92.80;;;;;;5034945;28;20284;-82
2022/03/27 09:53:22;;;;;;;;;;;11.90;92.90;;;;;;5034892;28;20353;-79
2022/03/27 09:56:13;;;;;;;23.83;5.60;;;11.90;92.20;;;;;;5034299;28;19921;-82
2022/03/27 09:58:46;;;;;;;29.90;6.40;;;11.90;90.80;;;;;;5026108;28;20326;-79
2022/03/27 10:01:18;;;;;;;26.73;6.17;;;12.00;90.60;;;;;;5016652;28;20357;-82
2022/03/27 10:04:00;;;;;;;27.90;6.07;;;12.00;91.30;;;;;;5034292;28;20295;-82
2022/03/27 10:06:27;;;;;;;26.13;5.97;;;;;;;;;;5034196;28;20323;-82
2022/03/27 10:08:53;;;;;;;29.90;6.87;;;12.10;91.40;;;;;;5034144;28;20292;-82
2022/03/27 10:11:22;;;;;;;25.47;6.03;;;12.10;90.70;;;;;;5032560;28;20276;-82
2022/03/27 10:13:52;;;;;;;22.23;5.37;;;12.20;90.70;;;;;;5032691;28;20061;-82
2022/03/27 10:16:23;;;;;;;22.17;4.90;;;12.20;90.80;;;;;;5033581;28;20410;-83
2022/03/27 10:18:53;;;;;;;24.50;5.40;;;12.20;82.40;;;;;;5034071;28;20323;-82
2022/03/27 10:21:23;;;;;;;22.50;5.50;;;12.20;77.90;;;;;;5032673;28;20284;-82
2022/03/27 10:23:55;;;;;;;22.57;5.17;;;12.20;76.90;;;;;;5033996;28;20292;-82
2022/03/27 10:26:21;;;;;;;22.03;5.63;;;12.20;76.30;;;;;;5032815;28;20324;-82
2022/03/27 10:28:50;;;;;;;21.63;6.63;;;12.20;77.30;;;;;;5033814;28;20323;-82
2022/03/27 10:31:18;;;;;;;26.10;5.57;;;12.10;79.80;;;;;;5032370;28;20148;-82
2022/03/27 10:33:45;;;;;;;19.17;5.20;;;12.20;79.60;;;;;;5016215;28;20691;-82
2022/03/27 10:36:20;;;;;;;25.03;6.00;;;12.30;79.40;;;;;;5031930;28;20334;-81
2022/03/27 10:38:58;;;;;;;21.40;5.00;;;12.40;76.70;;;;;;5033731;28;20359;-81
2022/03/27 10:41:33;;;;;;;17.77;5.03;;;12.40;76.10;;;;;;5033284;28;20371;-81
2022/03/27 10:44:22;;;;;;;17.10;4.40;;;12.50;72.40;;;;;;5033628;28;20337;-81
2022/03/27 10:47:10;;;;;;;21.03;5.20;;;12.50;69.80;;;;;;5033493;28;20280;-81
2022/03/27 10:49:36;;;;;;;15.60;4.00;;;12.50;67.80;;;;;;5016014;28;20284;-82
2022/03/27 10:52:06;;;;;;;14.60;4.40;;;12.60;69.30;;;;;;5033415;28;20280;-82
2022/03/27 10:54:33;;;;;;;16.73;4.47;;;12.70;67.60;;;;;;5032247;28;20504;-83
2022/03/27 10:56:59;;;;;;;19.00;4.77;;;12.70;64.00;;;;;;5033418;28;20328;-84
2022/03/27 10:59:26;;;;;;;19.50;4.50;;;12.70;62.70;;;;;;5032637;28;20794;-84
2022/03/27 11:01:54;;;;;;;12.13;3.93;;;12.80;63.70;;;;;;5031946;28;20292;-82
2022/03/27 11:04:41;;;;;;;16.17;4.40;;;12.70;64.60;;;;;;5032036;28;20609;-83
2022/03/27 11:07:15;;;;;;;15.03;4.43;;;12.70;65.70;;;;;;5033339;28;20272;-83
2022/03/27 11:09:45;;;;;;;16.33;3.67;;;12.80;66.40;;;;;;5033163;28;20371;-84
2022/03/27 11:12:24;;;;;;;15.57;3.90;;;12.90;63.70;;;;;;5032900;28;20042;-83
2022/03/27 11:14:53;;;;;;;17.73;3.37;;;13.00;62.20;;;;;;5033432;28;20315;-80
2022/03/27 11:17:44;;;;;;;16.87;4.17;;;13.10;67.50;;;;;;5031573;28;20403;-81
2022/03/27 11:20:25;;;;;;;12.53;3.27;;;13.10;65.70;;;;;;5032978;28;20280;-76
2022/03/27 11:22:55;;;;;;;13.87;4.63;;;13.00;64.60;;;;;;5033039;28;20367;-81
2022/03/27 11:25:27;;;;;;;14.43;3.70;;;13.00;64.70;;;;;;5032702;28;20276;-82
2022/03/27 11:27:54;;;;;;;14.83;4.10;;;13.10;64.40;;;;;;5032279;28;20367;-82
2022/03/27 11:30:19;;;;;;;18.83;4.13;;;13.10;62.70;;;;;;5032617;28;20330;-81
2022/03/27 11:33:18;;;;;;;14.77;4.00;;;13.20;61.70;;;;;;5015414;28;20292;-82
2022/03/27 11:36:05;;;;;;;14.77;3.70;;;13.20;61.20;;;;;;5032958;28;20183;-82
2022/03/27 11:38:50;;;;;;;16.37;3.73;;;13.20;60.40;;;;;;5032444;28;20415;-80
2022/03/27 11:41:23;;;;;;;;;;;13.40;60.90;;;;;;5031002;28;20296;-81
2022/03/27 11:43:50;;;;;;;14.43;3.97;;;13.10;61.50;;;;;;5032872;28;19928;-81
2022/03/27 11:46:37;;;;;;;11.87;3.50;;;13.20;60.40;;;;;;5032707;28;20775;-80
2022/03/27 11:49:02;;;;;;;15.33;4.57;;;13.30;59.10;;;;;;5034071;28;20284;-81
2022/03/27 11:51:28;;;;;;;20.67;4.23;;;13.30;59.50;;;;;;5015383;28;20276;-81
2022/03/27 11:53:57;;;;;;;16.93;3.97;;;13.20;60.40;;;;;;5032755;28;20478;-80
2022/03/27 11:56:26;;;;;;;16.00;3.70;;;13.20;58.10;;;;;;5031288;28;20129;-81
2022/03/27 11:59:12;;;;;;;17.07;4.00;;;13.30;57.70;;;;;;5031326;28;20284;-80
2022/03/27 12:01:39;;;;;;;13.07;3.57;;;13.30;57.20;;;;;;5032251;28;20275;-81
2022/03/27 12:04:06;;;;;;;18.03;4.20;;;13.30;58.00;;;;;;5032276;28;20768;-81
2022/03/27 12:06:33;;;;;;;14.90;4.03;;;13.40;58.00;;;;;;5032162;28;20280;-81
2022/03/27 12:08:58;;;;;;;13.03;3.30;;;13.40;57.50;;;;;;5032630;28;20284;-82
2022/03/27 12:11:26;;;;;;;17.70;4.87;;;13.40;57.40;;;;;;5032225;28;20770;-80
2022/03/27 12:13:53;;;;;;;15.23;4.03;;;13.50;57.60;;;;;;5032251;28;20058;-81
2022/03/27 12:16:24;;;;;;;13.73;4.20;;;13.50;57.80;;;;;;5032072;28;20365;-79
2022/03/27 12:18:51;;;;;;;13.60;3.20;;;13.50;58.10;;;;;;5032653;28;20312;-81
2022/03/27 12:21:19;;;;;;;14.77;3.93;;;13.50;58.30;;;;;;5031532;28;20296;-81
2022/03/27 12:24:04;;;;;;;12.97;2.90;;;13.50;58.70;;;;;;5014927;28;20299;-80
2022/03/27 12:29:40;;;;;;;15.23;4.10;;;13.70;58.30;;;;;;5032129;28;20054;-80
2022/03/27 12:32:11;;;;;;;13.75;3.97;;;13.80;57.50;;;;;;5032294;28;20287;-80
2022/03/27 12:34:47;;;;;;;14.63;3.53;;;13.80;56.20;;;;;;5031781;28;20097;-80
2022/03/27 12:37:19;;;;;;;10.93;3.27;;;13.80;57.30;;;;;;5031108;28;20307;-80
2022/03/27 12:39:47;;;;;;;12.47;3.20;;;13.70;57.60;;;;;;5015508;28;20319;-80
2022/03/27 12:42:29;;;;;;;13.27;3.77;;;13.80;56.90;;;;;;5034676;28;20784;-80
2022/03/27 12:45:07;;;;;;;16.30;3.50;;;13.80;56.50;;;;;;5018309;28;20386;-79
2022/03/27 12:47:41;;;;;;;16.43;4.63;;;13.70;57.60;;;;;;5034325;28;20276;-79
2022/03/27 12:50:10;;;;;;;16.67;3.92;;;13.70;57.40;;;;;;5035757;28;20320;-82
2022/03/27 12:52:51;;;;;;;15.23;3.67;;;13.70;58.90;;;;;;5035256;28;20132;-81
2022/03/27 12:55:17;;;;;;;15.87;3.77;;;13.70;58.80;;;;;;5035611;28;20280;-77
2022/03/27 12:58:00;;;;;;;14.00;4.23;;;13.70;58.90;;;;;;5017955;28;20462;-78
2022/03/27 13:00:33;;;;;;;15.90;3.23;;;13.80;58.70;;;;;;5035257;28;20322;-79
2022/03/27 13:03:19;;;;;;;20.17;3.67;;;13.80;58.20;;;;;;5034603;28;20295;-79
2022/03/27 13:05:56;;;;;;;14.70;3.40;;;13.90;58.30;;;;;;5034181;28;20372;-79
2022/03/27 13:08:26;;;;;;;13.13;3.63;;;13.80;59.20;;;;;;5035502;28;20300;-77